< < Back
Terminal Aerodrome Forecast


Current Version              Previous Versions:   1  2  3  4  5  6  7  8  9  

Terminal Aerodrome Forecast

066
FTUS42 KCAE 270200 AAA
TAFCAE
TAF AMD
KCAE 270227Z 2702/2724 04009KT P6SM SCT015 OVC040
      TEMPO 2702/2706 BKN015
     FM271200 33005KT P6SM SCT050=



Latest METAR

376
SAUS80 KWBC 270900 RRB
MTRCAE
METAR KCAE 270856Z 02004KT 10SM BKN060 12/08 A2978 RMK AO2 SLP081
T01220078 56001


USA.gov is the U.S. government's official web portal to all federal, state and local government web resources and services.